Time;durP1;ratioP1;P1;durP2;ratioP2;P2;SDS_P1;SDS_P2;PMS_P1;PMS_P2;Temp;Humidity;BMP_temperature;BMP_pressure;BME280_temperature;BME280_humidity;BME280_pressure;Samples;Min_cycle;Max_cycle;Signal;HPM_P1;HPM_P2
2023/03/12 00:01:15;;;;;;;16.75;11.48;;;;;;;15.06;81.24;101238.69;10334159;28;97205;-79
2023/03/12 00:06:21;;;;;;;18.88;12.23;;;;;;;15.12;80.89;101214.56;10337512;28;97152;-79
2023/03/12 00:11:24;;;;;;;18.55;10.52;;;;;;;14.94;81.09;101243.66;10339282;28;97021;-79
2023/03/12 00:16:29;;;;;;;19.50;11.02;;;;;;;14.98;81.07;101234.63;10341114;28;96751;-79
2023/03/12 00:21:33;;;;;;;19.23;11.37;;;;;;;14.86;81.01;101228.06;10327530;28;96745;-78
2023/03/12 00:26:37;;;;;;;19.60;9.98;;;;;;;14.71;81.15;101221.59;10338237;28;96731;-79
2023/03/12 00:31:40;;;;;;;16.83;10.70;;;;;;;14.60;81.11;101218.53;10336860;28;96888;-79
2023/03/12 00:36:45;;;;;;;18.42;10.10;;;;;;;14.48;81.55;101224.34;10337035;28;97112;-79
2023/03/12 00:41:48;;;;;;;15.10;10.38;;;;;;;14.41;81.50;101236.09;10338534;28;96704;-79
2023/03/12 00:46:51;;;;;;;20.85;10.75;;;;;;;14.54;81.38;101234.66;10335256;28;97568;-79
2023/03/12 00:51:56;;;;;;;16.13;10.18;;;;;;;14.40;81.69;101236.16;10337815;28;96761;-79
2023/03/12 00:56:59;;;;;;;14.40;10.10;;;;;;;14.55;81.43;101238.19;10336492;28;96867;-80
2023/03/12 01:02:02;;;;;;;16.27;10.05;;;;;;;14.47;81.56;101241.13;10338976;28;96846;-80
2023/03/12 01:07:07;;;;;;;17.42;10.02;;;;;;;14.51;81.44;101233.94;10339611;28;96699;-80
2023/03/12 01:12:10;;;;;;;18.40;9.43;;;;;;;14.59;81.20;101222.09;10344470;28;96855;-80
2023/03/12 01:17:14;;;;;;;13.95;8.90;;;;;;;14.57;81.29;101225.75;10347058;28;96804;-80
2023/03/12 01:22:19;;;;;;;16.25;9.20;;;;;;;14.50;81.07;101235.72;10346664;28;97610;-80
2023/03/12 01:27:22;;;;;;;16.58;8.95;;;;;;;14.36;81.23;101242.50;10335562;28;96945;-80
2023/03/12 01:32:25;;;;;;;16.48;9.60;;;;;;;14.36;81.55;101237.19;10354533;28;98768;-80
2023/03/12 01:37:31;;;;;;;16.23;9.18;;;;;;;14.42;81.19;101234.31;10374606;28;96763;-80
2023/03/12 01:42:35;;;;;;;16.25;9.10;;;;;;;14.44;81.30;101229.78;10379375;28;97320;-80
2023/03/12 01:47:38;;;;;;;14.05;8.20;;;;;;;14.34;81.22;101241.69;10352342;28;96783;-81
2023/03/12 01:52:43;;;;;;;11.40;7.05;;;;;;;14.24;81.35;101241.19;10340636;28;96902;-79
2023/03/12 01:57:51;;;;;;;16.30;9.52;;;;;;;14.21;81.64;101245.75;10339538;28;96777;-79
2023/03/12 02:02:58;;;;;;;15.80;8.07;;;;;;;14.11;81.71;101233.75;10322415;28;99154;-80
2023/03/12 02:08:03;;;;;;;16.85;9.27;;;;;;;14.19;81.53;101232.56;10342152;28;96804;-79
2023/03/12 02:13:07;;;;;;;17.35;9.35;;;;;;;14.23;81.30;101228.84;10352631;28;96724;-80
2023/03/12 02:18:15;;;;;;;15.27;9.90;;;;;;;14.33;81.14;101232.03;10334769;28;97181;-80
2023/03/12 02:23:28;;;;;;;15.85;9.40;;;;;;;14.37;80.91;101230.97;10322104;28;97205;-80
2023/03/12 02:28:41;;;;;;;17.70;9.50;;;;;;;14.40;80.64;101218.47;10373426;28;97066;-80
2023/03/12 02:33:44;;;;;;;13.95;8.68;;;;;;;14.33;80.94;101209.03;10342398;28;96799;-80
2023/03/12 02:38:49;;;;;;;17.80;9.15;;;;;;;14.29;80.90;101211.88;10332835;28;99289;-80
2023/03/12 02:43:57;;;;;;;;;;;;;;;14.20;81.29;101205.16;10340112;28;96930;-79
2023/03/12 02:49:01;;;;;;;15.40;8.57;;;;;;;14.20;81.04;101207.81;10374119;28;97274;-80
2023/03/12 02:54:05;;;;;;;15.37;9.00;;;;;;;14.11;80.54;101205.50;10355328;28;96957;-80
2023/03/12 02:59:10;;;;;;;12.23;7.47;;;;;;;13.92;81.38;101203.63;10339362;28;96811;-79
2023/03/12 03:04:14;;;;;;;19.00;7.97;;;;;;;13.82;81.47;101204.88;10371484;28;97030;-79
2023/03/12 03:09:18;;;;;;;13.05;7.30;;;;;;;13.82;81.32;101189.88;10367708;28;97966;-79
2023/03/12 03:14:23;;;;;;;13.10;8.33;;;;;;;13.96;80.92;101184.03;10334447;28;97536;-79
2023/03/12 03:19:26;;;;;;;;;;;;;;;13.71;81.28;101193.84;10339745;28;96805;-80
2023/03/12 03:24:29;;;;;;;28.33;9.32;;;;;;;13.67;81.54;101180.72;10331867;28;96767;-80
2023/03/12 03:29:34;;;;;;;21.73;8.93;;;;;;;13.81;81.03;101187.28;10334765;28;98114;-80
2023/03/12 03:34:37;;;;;;;11.02;7.45;;;;;;;13.85;80.79;101180.97;10352807;28;97379;-80
2023/03/12 03:39:41;;;;;;;80.47;12.05;;;;;;;13.42;82.05;101156.13;10336735;28;97103;-80
2023/03/12 03:44:45;;;;;;;17.08;8.70;;;;;;;13.51;81.79;101163.72;10331367;28;96765;-81
2023/03/12 03:49:49;;;;;;;89.47;12.75;;;;;;;13.39;81.96;101168.59;10368157;28;96807;-81
2023/03/12 03:54:53;;;;;;;213.20;18.52;;;;;;;13.26;82.33;101168.16;10348477;28;97593;-80
2023/03/12 03:59:59;;;;;;;227.50;19.63;;;;;;;13.21;82.17;101151.59;10369864;28;96821;-80
2023/03/12 04:05:06;;;;;;;91.10;11.75;;;;;;;13.39;81.79;101150.94;10362704;28;99435;-80
2023/03/12 04:10:11;;;;;;;244.63;19.27;;;;;;;13.38;81.82;101151.84;10372679;28;96907;-80
2023/03/12 04:15:16;;;;;;;381.50;25.40;;;;;;;13.07;83.19;101150.41;10377658;28;96783;-80
2023/03/12 04:20:19;;;;;;;405.83;26.02;;;;;;;13.04;83.17;101137.25;10353285;28;99228;-80
2023/03/12 04:25:23;;;;;;;325.50;19.45;;;;;;;13.03;82.73;101149.63;10383350;28;96797;-80
2023/03/12 04:30:27;;;;;;;414.77;25.20;;;;;;;12.77;83.59;101156.72;10366162;28;96726;-80
2023/03/12 04:35:31;;;;;;;362.38;22.58;;;;;;;12.85;83.51;101160.84;10339315;28;96964;-80
2023/03/12 04:40:34;;;;;;;129.93;12.10;;;;;;;13.04;83.36;101148.72;10300275;28;96779;-79
2023/03/12 04:45:39;;;;;;;82.15;9.20;;;;;;;13.13;82.93;101151.03;10360794;28;96666;-80
2023/03/12 04:50:43;;;;;;;62.55;7.80;;;;;;;13.17;82.64;101154.44;10374005;28;96814;-80
2023/03/12 04:55:46;;;;;;;429.67;25.38;;;;;;;12.95;83.28;101149.03;10341630;28;96601;-79
2023/03/12 05:00:51;;;;;;;272.80;16.45;;;;;;;12.97;83.27;101156.88;10354329;28;96755;-80
2023/03/12 05:05:55;;;;;;;222.55;15.07;;;;;;;12.89;83.96;101145.75;10375416;28;96722;-80
2023/03/12 05:10:58;;;;;;;159.98;11.82;;;;;;;12.83;83.88;101148.56;10322008;28;96918;-79
2023/03/12 05:16:03;;;;;;;87.05;9.60;;;;;;;12.79;83.81;101153.09;10333038;28;97698;-79
2023/03/12 05:21:08;;;;;;;93.82;10.80;;;;;;;12.86;83.99;101144.06;10382487;28;96762;-79
2023/03/12 05:26:17;;;;;;;32.30;7.45;;;;;;;12.98;83.78;101145.44;10357632;28;97690;-79
2023/03/12 05:31:22;;;;;;;128.32;10.98;;;;;;;12.89;83.46;101133.41;10354848;28;96880;-79
2023/03/12 05:36:25;;;;;;;110.53;11.07;;;;;;;12.93;83.60;101129.72;10338604;28;96890;-79
2023/03/12 05:41:30;;;;;;;112.10;11.75;;;;;;;12.82;83.33;101123.97;10361449;28;97117;-80
2023/03/12 05:46:35;;;;;;;97.13;10.43;;;;;;;12.77;83.45;101117.13;10340431;28;96685;-80
2023/03/12 05:51:38;;;;;;;29.35;7.50;;;;;;;12.86;83.53;101122.09;10378643;28;97049;-80
2023/03/12 05:56:41;;;;;;;142.90;13.18;;;;;;;12.88;83.02;101113.16;10373646;28;97632;-80
2023/03/12 06:01:46;;;;;;;153.13;13.80;;;;;;;12.88;83.58;101104.41;10353734;28;97415;-80
2023/03/12 06:06:49;;;;;;;41.33;8.60;;;;;;;12.88;83.25;101101.75;10339116;28;96854;-80
2023/03/12 06:11:53;;;;;;;453.40;28.15;;;;;;;12.76;83.25;101100.41;10339101;28;96889;-80
2023/03/12 06:16:58;;;;;;;478.85;31.52;;;;;;;12.51;83.84;101104.78;10351417;28;97744;-79
2023/03/12 06:22:03;;;;;;;186.40;14.73;;;;;;;12.46;84.61;101093.50;10315314;28;96803;-79
2023/03/12 06:27:06;;;;;;;179.10;14.03;;;;;;;12.41;84.32;101088.38;10339253;28;97425;-79
2023/03/12 06:32:11;;;;;;;243.07;17.08;;;;;;;12.43;83.71;101077.75;10361307;28;96710;-80
2023/03/12 06:37:14;;;;;;;209.93;15.60;;;;;;;12.30;84.51;101071.19;10338258;28;96862;-80
2023/03/12 06:42:18;;;;;;;250.95;18.33;;;;;;;12.20;85.05;101075.88;10347118;28;96976;-80
2023/03/12 06:47:23;;;;;;;249.30;16.27;;;;;;;12.04;85.37;101079.97;10369113;28;97491;-80
2023/03/12 06:52:27;;;;;;;452.40;31.08;;;;;;;11.89;85.85;101079.59;10351091;28;96816;-78
2023/03/12 06:57:30;;;;;;;322.23;21.30;;;;;;;11.84;86.65;101065.69;10365574;28;97217;-78
2023/03/12 07:02:35;;;;;;;235.30;17.00;;;;;;;11.86;86.28;101087.59;10346368;28;97368;-77
2023/03/12 07:07:39;;;;;;;434.13;29.30;;;;;;;11.90;86.17;101090.09;10361337;28;97517;-78
2023/03/12 07:12:42;;;;;;;429.23;29.27;;;;;;;12.04;85.30;101098.44;10336017;28;97452;-78
2023/03/12 07:17:47;;;;;;;345.23;22.08;;;;;;;12.11;85.27;101094.69;10336216;28;96723;-78
2023/03/12 07:22:50;;;;;;;154.75;11.77;;;;;;;12.22;84.59;101089.06;10336046;28;99105;-78
2023/03/12 07:27:53;;;;;;;288.77;18.02;;;;;;;12.07;85.54;101092.19;10325666;28;96929;-74
2023/03/12 07:32:58;;;;;;;377.90;24.50;;;;;;;12.04;86.29;101085.25;10332027;28;96827;-74
2023/03/12 07:38:02;;;;;;;270.15;18.27;;;;;;;12.09;86.37;101085.09;10331761;28;96889;-76
2023/03/12 07:43:10;;;;;;;526.97;39.15;;;;;;;12.05;86.22;101089.59;10320386;28;96796;-75
2023/03/12 07:48:14;;;;;;;468.23;35.08;;;;;;;12.08;87.01;101092.13;10334804;28;96748;-76
2023/03/12 07:53:18;;;;;;;169.82;14.27;;;;;;;12.27;86.37;101103.81;10341089;28;96773;-76
2023/03/12 07:58:21;;;;;;;630.90;48.00;;;;;;;12.21;86.78;101105.78;10342011;28;98116;-75
2023/03/12 08:03:26;;;;;;;324.92;24.55;;;;;;;12.42;86.42;101105.09;10340183;28;96747;-76
2023/03/12 08:08:30;;;;;;;;;;;;;;;12.39;86.82;101116.59;10344966;28;96914;-75
2023/03/12 08:13:33;;;;;;;214.35;15.32;;;;;;;12.97;85.33;101118.13;10346888;28;96842;-75
2023/03/12 08:18:38;;;;;;;28.35;5.80;;;;;;;13.38;84.30;101128.06;10340622;28;99215;-78
2023/03/12 08:23:41;;;;;;;13.13;4.75;;;;;;;13.89;83.35;101133.16;10345419;28;96834;-75
2023/03/12 08:28:45;;;;;;;116.25;9.88;;;;;;;13.90;82.67;101118.97;10337769;28;98950;-75
2023/03/12 08:33:49;;;;;;;23.63;5.95;;;;;;;14.02;82.30;101117.69;10345850;28;96750;-74
2023/03/12 08:38:53;;;;;;;79.18;8.85;;;;;;;14.01;82.46;101111.50;10339534;28;96735;-77
2023/03/12 08:43:56;;;;;;;35.08;6.07;;;;;;;14.28;81.45;101094.50;10340438;28;96871;-76
2023/03/12 08:49:01;;;;;;;4.70;4.28;;;;;;;14.93;79.86;101089.06;10357300;28;97577;-77
2023/03/12 08:54:05;;;;;;;6.43;4.10;;;;;;;15.87;77.67;101097.03;10357697;28;98663;-76
2023/03/12 08:59:08;;;;;;;8.55;3.95;;;;;;;16.69;74.88;101095.63;10333669;28;97211;-76
2023/03/12 09:04:13;;;;;;;5.07;4.18;;;;;;;16.92;73.70;101095.31;10343507;28;96954;-74
2023/03/12 09:09:16;;;;;;;3.90;3.50;;;;;;;16.93;72.99;101091.69;10347591;28;97291;-77
2023/03/12 09:14:19;;;;;;;4.45;3.92;;;;;;;17.30;71.90;101107.44;10358676;28;97696;-79
2023/03/12 09:19:44;;;;;;;4.35;3.50;;;;;;;17.96;69.89;101111.78;10363659;28;96826;-77
2023/03/12 09:24:47;;;;;;;4.30;3.50;;;;;;;18.35;68.77;101121.94;10340552;28;97590;-78
2023/03/12 09:29:51;;;;;;;4.30;2.90;;;;;;;18.82;67.85;101121.84;10337164;28;99304;-75
2023/03/12 09:35:04;;;;;;;4.93;3.33;;;;;;;19.24;66.18;101135.28;10346511;28;96769;-75
2023/03/12 09:40:13;;;;;;;4.85;3.42;;;;;;;20.21;64.10;101124.59;10339341;28;96875;-75
2023/03/12 09:45:21;;;;;;;5.40;3.28;;;;;;;20.86;61.98;101137.13;10340188;28;96775;-76
2023/03/12 09:50:31;;;;;;;4.13;3.05;;;;;;;22.17;58.16;101122.41;10319640;28;98315;-75
2023/03/12 09:55:38;;;;;;;4.68;2.72;;;;;;;23.42;55.17;101134.19;10332462;28;97417;-74
2023/03/12 10:00:41;;;;;;;4.57;2.67;;;;;;;23.38;54.17;101121.13;10339454;28;97009;-74
2023/03/12 10:06:02;;;;;;;4.47;3.10;;;;;;;23.06;53.28;101128.19;10333065;28;98911;-74
2023/03/12 10:11:17;;;;;;;5.13;2.88;;;;;;;23.10;52.65;101118.88;10337760;28;99339;-74
2023/03/12 10:16:38;;;;;;;5.15;2.83;;;;;;;24.11;50.23;101122.34;10337107;28;98316;-75
2023/03/12 10:21:51;;;;;;;3.95;2.90;;;;;;;24.27;49.39;101112.03;10331653;28;98197;-73
2023/03/12 10:26:57;;;;;;;4.72;2.88;;;;;;;24.97;47.50;101125.81;10336987;28;96913;-74
2023/03/12 10:32:05;;;;;;;3.95;2.70;;;;;;;25.17;46.60;101110.69;10335568;28;98086;-74
2023/03/12 10:37:16;;;;;;;4.55;2.72;;;;;;;25.25;46.18;101097.38;10331977;28;98449;-75
2023/03/12 10:42:21;;;;;;;7.03;3.17;;;;;;;25.52;45.58;101086.91;10310560;28;97005;-76
2023/03/12 10:47:33;;;;;;;4.53;2.80;;;;;;;25.70;43.94;101087.97;10340612;28;97274;-77
2023/03/12 10:52:38;;;;;;;5.05;2.75;;;;;;;25.84;44.20;101072.28;10338395;28;99123;-76
2023/03/12 10:57:42;;;;;;;4.43;2.58;;;;;;;25.86;44.52;101061.34;10338441;28;97666;-75
2023/03/12 11:02:46;;;;;;;4.47;2.63;;;;;;;26.38;43.47;101044.84;10346903;28;97259;-74
2023/03/12 11:07:51;;;;;;;4.43;2.63;;;;;;;26.64;42.15;101039.69;10345583;28;99324;-75
2023/03/12 11:13:03;;;;;;;4.47;2.63;;;;;;;27.20;41.43;101026.22;10335360;28;99033;-75
2023/03/12 11:18:29;;;;;;;5.35;2.67;;;;;;;28.63;39.10;101019.91;10344129;28;96960;-75
2023/03/12 11:23:34;;;;;;;5.85;3.00;;;;;;;29.88;37.00;101001.94;10334944;28;96885;-75
2023/03/12 11:28:41;;;;;;;4.60;2.60;;;;;;;30.61;34.94;101007.47;10346036;28;96900;-75
2023/03/12 11:33:44;;;;;;;4.32;2.35;;;;;;;31.13;35.50;101009.63;10348419;28;96855;-74
2023/03/12 11:38:54;;;;;;;4.38;2.20;;;;;;;30.21;35.59;100995.56;10345507;28;96904;-74
2023/03/12 11:44:14;;;;;;;4.35;1.80;;;;;;;28.60;36.54;100987.72;10347532;28;98803;-74
2023/03/12 11:49:34;;;;;;;5.65;2.05;;;;;;;29.42;35.59;100980.75;10353438;28;98108;-74
2023/03/12 11:55:01;;;;;;;4.00;1.90;;;;;;;30.25;33.30;100971.66;10370665;28;97197;-74
2023/03/12 12:00:15;;;;;;;3.30;1.70;;;;;;;29.03;35.73;100972.28;10346666;28;97014;-74
2023/03/12 12:05:27;;;;;;;4.95;2.00;;;;;;;27.91;37.88;100961.34;10332968;28;97890;-81
2023/03/12 12:10:41;;;;;;;4.28;1.77;;;;;;;28.67;37.41;100967.94;10339304;28;96872;-81
2023/03/12 12:15:54;;;;;;;4.03;2.15;;;;;;;26.69;40.19;100968.06;10332451;28;97485;-74
2023/03/12 12:21:04;;;;;;;3.80;2.10;;;;;;;26.20;41.05;100956.59;10338305;28;96983;-75
2023/03/12 12:26:12;;;;;;;4.78;2.30;;;;;;;25.83;41.92;100961.88;10339399;28;96973;-75
2023/03/12 12:31:30;;;;;;;5.30;2.75;;;;;;;25.94;42.31;100950.91;10352873;28;98805;-77
2023/03/12 12:36:35;;;;;;;5.30;2.92;;;;;;;26.32;41.88;100942.81;10349217;28;98004;-76
2023/03/12 12:41:44;;;;;;;6.78;2.75;;;;;;;26.12;42.35;100932.19;10359941;28;96819;-76
2023/03/12 12:46:51;;;;;;;4.80;3.10;;;;;;;24.60;45.29;100934.28;10353786;28;99128;-77
2023/03/12 12:52:00;;;;;;;5.55;2.78;;;;;;;24.05;46.61;100931.91;10301106;28;96615;-76
2023/03/12 12:57:12;;;;;;;6.30;2.92;;;;;;;22.82;49.34;100915.34;10350707;28;96953;-76
2023/03/12 13:02:19;;;;;;;6.38;2.97;;;;;;;22.84;49.78;100913.38;10340683;28;96873;-76
2023/03/12 13:07:36;;;;;;;6.10;3.10;;;;;;;22.46;51.24;100895.78;10346091;28;97198;-76
2023/03/12 13:12:50;;;;;;;5.00;2.72;;;;;;;22.96;50.06;100896.28;10339834;28;97018;-77
2023/03/12 13:18:05;;;;;;;;;;;;;;;22.19;51.70;100892.59;10347862;28;96850;-76
2023/03/12 13:23:32;;;;;;;6.03;3.28;;;;;;;22.74;50.22;100873.00;10353654;28;96974;-76
2023/03/12 13:28:56;;;;;;;5.45;3.10;;;;;;;23.13;49.89;100877.00;10337605;28;96734;-75
2023/03/12 13:34:50;;;;;;;6.35;2.97;;;;;;;22.98;50.11;100862.13;10359345;28;96740;-74
2023/03/12 13:39:53;;;;;;;5.95;2.88;;;;;;;23.21;49.92;100837.81;10353599;28;97790;-75
2023/03/12 13:45:22;;;;;;;6.27;3.00;;;;;;;22.35;51.38;100826.03;10337365;28;97583;-74
2023/03/12 13:50:25;;;;;;;6.10;3.08;;;;;;;22.30;51.61;100824.69;10360319;28;97250;-74
2023/03/12 13:55:30;;;;;;;6.87;2.80;;;;;;;22.05;52.18;100822.22;10343339;28;97400;-76
2023/03/12 14:00:40;;;;;;;7.07;3.33;;;;;;;22.05;52.47;100822.22;10336592;28;96839;-74
2023/03/12 14:05:50;;;;;;;8.68;3.08;;;;;;;22.19;52.06;100817.50;10362369;28;96732;-74
2023/03/12 14:11:09;;;;;;;6.22;2.70;;;;;;;22.73;51.38;100808.72;10340934;28;98562;-75
2023/03/12 14:16:22;;;;;;;9.40;3.50;;;;;;;24.11;48.25;100796.94;10360372;28;99057;-75
2023/03/12 14:21:33;;;;;;;7.47;2.53;;;;;;;24.16;47.16;100799.22;10347950;28;99654;-74
2023/03/12 14:26:37;;;;;;;6.05;2.72;;;;;;;24.08;47.96;100788.28;10368063;28;96827;-78
2023/03/12 14:31:42;;;;;;;;;;;;;;;24.03;48.07;100783.28;10350298;28;98624;-76
2023/03/12 14:36:50;;;;;;;6.32;3.10;;;;;;;24.30;47.10;100772.84;10355267;28;97851;-76
2023/03/12 14:41:58;;;;;;;4.53;2.78;;;;;;;24.41;47.12;100777.28;10336554;28;96857;-77
2023/03/12 14:47:08;;;;;;;6.18;2.80;;;;;;;24.18;47.30;100765.84;10348157;28;96804;-77
2023/03/12 14:52:12;;;;;;;4.65;2.38;;;;;;;23.86;48.49;100756.19;10337601;28;96872;-75
2023/03/12 14:57:23;;;;;;;7.05;2.60;;;;;;;24.29;47.45;100756.84;10340229;28;97625;-75
2023/03/12 15:02:30;;;;;;;7.28;2.80;;;;;;;25.23;45.44;100749.13;10335556;28;97305;-78
2023/03/12 15:07:38;;;;;;;5.43;2.90;;;;;;;25.65;44.44;100737.91;10344132;28;97759;-75
2023/03/12 15:12:45;;;;;;;5.35;2.70;;;;;;;24.85;46.45;100723.00;10347532;28;97010;-74
2023/03/12 15:17:52;;;;;;;5.53;2.42;;;;;;;24.67;46.66;100712.06;10353548;28;98833;-73
2023/03/12 15:22:56;;;;;;;5.45;2.65;;;;;;;24.28;47.66;100704.03;10345531;28;98544;-73
2023/03/12 15:28:08;;;;;;;6.20;2.67;;;;;;;25.51;45.12;100692.53;10329660;28;98577;-74
2023/03/12 15:33:24;;;;;;;6.53;2.70;;;;;;;25.46;45.09;100693.94;10336940;28;97127;-73
2023/03/12 15:38:29;;;;;;;10.15;3.10;;;;;;;25.39;45.26;100690.13;10336744;28;96683;-73
2023/03/12 15:43:34;;;;;;;6.55;3.08;;;;;;;24.29;47.54;100684.22;10337216;28;96718;-74
2023/03/12 15:48:40;;;;;;;7.97;3.47;;;;;;;23.97;48.88;100681.66;10306936;28;96609;-73
2023/03/12 15:53:43;;;;;;;7.57;3.50;;;;;;;24.05;49.44;100695.28;10312246;28;96778;-74
2023/03/12 15:58:47;;;;;;;6.63;3.43;;;;;;;23.53;50.98;100690.03;10337619;28;96664;-74
2023/03/12 16:03:52;;;;;;;5.87;3.00;;;;;;;23.38;51.71;100673.41;10325046;28;97194;-74
2023/03/12 16:08:57;;;;;;;6.18;3.55;;;;;;;22.64;52.72;100677.00;10302550;28;97142;-73
2023/03/12 16:14:04;;;;;;;7.53;3.58;;;;;;;22.66;53.74;100666.16;10301158;28;96848;-73
2023/03/12 16:19:13;;;;;;;7.45;4.10;;;;;;;22.61;53.28;100662.97;10302932;28;96869;-74
2023/03/12 16:24:16;;;;;;;7.00;3.50;;;;;;;22.42;52.87;100662.78;10309115;28;97143;-74
2023/03/12 16:29:21;;;;;;;9.70;3.83;;;;;;;22.05;54.81;100653.38;10342117;28;98164;-74
2023/03/12 16:34:25;;;;;;;10.45;5.50;;;;;;;22.10;55.04;100664.56;10342537;28;96828;-73
2023/03/12 16:39:31;;;;;;;5.60;3.33;;;;;;;21.82;55.37;100659.66;10313537;28;96882;-74
2023/03/12 16:44:35;;;;;;;7.63;3.47;;;;;;;21.71;56.32;100659.69;10301265;28;96794;-74
2023/03/12 16:49:40;;;;;;;7.53;3.33;;;;;;;21.57;56.32;100655.41;10301762;28;97883;-74
2023/03/12 16:54:43;;;;;;;6.57;3.58;;;;;;;21.21;57.36;100661.78;10301377;28;97013;-74
2023/03/12 16:59:46;;;;;;;7.45;3.63;;;;;;;21.03;58.49;100665.00;10300545;28;96674;-73
2023/03/12 17:04:51;;;;;;;8.65;3.90;;;;;;;20.75;58.65;100662.69;10299648;28;96759;-74
2023/03/12 17:09:54;;;;;;;8.55;3.83;;;;;;;20.69;58.99;100650.63;10300360;28;96774;-74
2023/03/12 17:15:00;;;;;;;7.97;3.63;;;;;;;20.52;59.71;100659.06;10341040;28;96946;-74
2023/03/12 17:20:07;;;;;;;8.02;3.97;;;;;;;20.36;59.77;100669.16;10340488;28;97255;-74
2023/03/12 17:25:20;;;;;;;8.70;3.58;;;;;;;20.25;60.43;100677.94;10340967;28;96886;-74
2023/03/12 17:30:24;;;;;;;10.80;4.32;;;;;;;20.18;60.60;100675.84;10312000;28;96934;-74
2023/03/12 17:35:28;;;;;;;9.40;4.73;;;;;;;19.99;60.97;100675.44;10299676;28;96604;-74
2023/03/12 17:40:32;;;;;;;9.30;4.20;;;;;;;20.03;61.20;100683.13;10300114;28;96817;-74
2023/03/12 17:45:36;;;;;;;7.90;4.00;;;;;;;19.93;61.27;100683.88;10299772;28;96940;-74
2023/03/12 17:50:41;;;;;;;7.67;4.27;;;;;;;19.88;61.28;100688.69;10299175;28;96761;-74
2023/03/12 17:55:44;;;;;;;9.23;4.28;;;;;;;19.69;62.17;100694.50;10302805;28;97633;-74
2023/03/12 18:00:48;;;;;;;7.90;4.22;;;;;;;19.69;61.95;100701.63;10339716;28;96529;-74
2023/03/12 18:05:53;;;;;;;6.38;3.72;;;;;;;19.64;62.21;100706.44;10299410;28;96760;-74
2023/03/12 18:10:56;;;;;;;9.07;4.30;;;;;;;19.44;62.94;100712.31;10298547;28;96605;-74
2023/03/12 18:15:59;;;;;;;8.27;4.22;;;;;;;19.24;63.03;100711.84;10298400;28;96916;-74
2023/03/12 18:21:05;;;;;;;7.82;4.07;;;;;;;19.13;63.42;100711.69;10302731;28;96826;-74
2023/03/12 18:26:08;;;;;;;8.40;4.00;;;;;;;19.02;63.63;100721.38;10338492;28;96617;-73
2023/03/12 18:31:11;;;;;;;8.45;4.22;;;;;;;18.94;63.91;100726.34;10339805;28;98014;-73
2023/03/12 18:36:16;;;;;;;10.00;4.25;;;;;;;18.73;64.72;100733.97;10328269;28;97307;-74
2023/03/12 18:41:20;;;;;;;12.13;5.38;;;;;;;18.57;65.58;100743.94;10297647;28;96736;-76
2023/03/12 18:46:23;;;;;;;10.07;4.80;;;;;;;18.47;65.85;100748.13;10296534;28;96710;-74
2023/03/12 18:51:28;;;;;;;14.52;4.97;;;;;;;18.31;66.48;100762.50;10296870;28;96589;-74
2023/03/12 18:56:31;;;;;;;;;;;;;;;18.11;67.29;100761.06;10309699;28;96906;-74
2023/03/12 19:01:34;;;;;;;8.43;5.18;;;;;;;18.13;66.68;100773.38;10338204;28;96642;-74
2023/03/12 19:06:39;;;;;;;11.60;5.45;;;;;;;18.00;67.09;100775.06;10337866;28;96620;-76
2023/03/12 19:11:53;;;;;;;10.55;4.95;;;;;;;17.94;67.42;100766.59;10314007;28;96721;-74
2023/03/12 19:16:56;;;;;;;12.45;5.47;;;;;;;17.76;67.99;100771.25;10296715;28;96680;-74
2023/03/12 19:22:01;;;;;;;12.48;5.60;;;;;;;17.65;68.57;100770.19;10297296;28;96813;-76
2023/03/12 19:27:04;;;;;;;;;;;;;;;17.44;69.52;100769.63;10325645;28;96836;-74
2023/03/12 19:32:08;;;;;;;16.02;5.15;;;;;;;17.52;68.22;100785.19;10296576;28;96654;-75
2023/03/12 19:37:12;;;;;;;9.60;5.33;;;;;;;17.50;68.01;100769.28;10297907;28;96687;-75
2023/03/12 19:42:15;;;;;;;;;;;;;;;17.10;70.83;100761.06;10303769;28;96903;-76
2023/03/12 19:47:20;;;;;;;9.43;5.55;;;;;;;17.16;69.77;100764.22;10303757;28;96868;-75
2023/03/12 19:52:25;;;;;;;11.30;6.20;;;;;;;17.18;69.54;100753.50;10302952;28;96750;-76
2023/03/12 19:57:28;;;;;;;;;;;;;;;17.01;70.21;100750.03;10322408;28;96543;-76
2023/03/12 20:02:31;;;;;;;12.20;5.95;;;;;;;17.09;69.65;100749.56;10322770;28;96704;-75
2023/03/12 20:07:36;;;;;;;9.73;6.05;;;;;;;17.03;70.03;100748.13;10301989;28;98120;-76
2023/03/12 20:12:39;;;;;;;12.85;5.70;;;;;;;16.86;70.30;100734.94;10303214;28;96634;-76
2023/03/12 20:17:43;;;;;;;12.77;6.85;;;;;;;16.81;70.37;100744.13;10303108;28;96880;-73
2023/03/12 20:22:47;;;;;;;15.38;8.02;;;;;;;16.88;70.21;100751.66;10302047;28;96659;-76
2023/03/12 20:27:51;;;;;;;14.80;7.90;;;;;;;16.90;70.01;100741.81;10333035;28;96956;-76
2023/03/12 20:32:54;;;;;;;14.90;7.45;;;;;;;16.82;69.88;100733.44;10342612;28;97255;-76
2023/03/12 20:37:59;;;;;;;11.27;6.53;;;;;;;16.76;70.56;100732.91;10309745;28;96562;-76
2023/03/12 20:43:03;;;;;;;12.32;7.80;;;;;;;16.47;71.56;100731.03;10301277;28;96696;-76
2023/03/12 20:48:07;;;;;;;13.55;6.90;;;;;;;16.46;71.54;100730.19;10300492;28;96547;-75
2023/03/12 20:53:12;;;;;;;16.38;7.55;;;;;;;16.53;71.61;100720.09;10301705;28;96619;-76
2023/03/12 20:58:15;;;;;;;14.23;7.20;;;;;;;16.59;70.67;100711.75;10326439;28;96657;-76
2023/03/12 21:03:18;;;;;;;14.75;6.95;;;;;;;16.49;71.57;100697.28;10342441;28;96762;-75
2023/03/12 21:08:24;;;;;;;15.52;7.70;;;;;;;16.44;71.56;100676.31;10338009;28;96850;-76
2023/03/12 21:13:29;;;;;;;15.30;8.48;;;;;;;16.36;71.67;100677.66;10300367;28;96639;-76
2023/03/12 21:18:32;;;;;;;16.77;8.27;;;;;;;16.16;71.97;100676.09;10299150;28;96805;-76
2023/03/12 21:23:37;;;;;;;16.30;8.45;;;;;;;16.00;72.48;100690.28;10300053;28;97666;-76
2023/03/12 21:28:41;;;;;;;14.68;8.13;;;;;;;15.82;73.39;100684.22;10300109;28;96887;-75
2023/03/12 21:33:44;;;;;;;16.85;8.25;;;;;;;15.66;73.09;100697.44;10338201;28;96809;-76
2023/03/12 21:38:50;;;;;;;9.80;7.28;;;;;;;15.75;73.14;100693.44;10340660;28;97085;-76
2023/03/12 21:43:53;;;;;;;16.73;8.75;;;;;;;15.56;73.85;100698.84;10324712;28;96710;-75
2023/03/12 21:48:57;;;;;;;13.05;7.47;;;;;;;15.50;74.11;100712.44;10299322;28;96677;-76
2023/03/12 21:54:02;;;;;;;11.93;7.50;;;;;;;15.55;73.99;100720.16;10299970;28;96772;-76
2023/03/12 21:59:05;;;;;;;15.50;8.35;;;;;;;15.43;73.98;100721.66;10329665;28;97236;-76
2023/03/12 22:04:08;;;;;;;17.48;7.88;;;;;;;15.38;73.92;100712.22;10298525;28;96743;-76
2023/03/12 22:09:13;;;;;;;17.42;8.43;;;;;;;15.25;73.63;100711.13;10296839;28;96835;-76
2023/03/12 22:14:17;;;;;;;14.80;7.57;;;;;;;15.30;73.66;100712.59;10298353;28;97087;-75
2023/03/12 22:19:20;;;;;;;16.10;8.05;;;;;;;15.36;73.37;100679.63;10298941;28;96570;-76
2023/03/12 22:24:25;;;;;;;13.77;7.32;;;;;;;15.25;73.58;100668.72;10297949;28;96745;-75
2023/03/12 22:29:28;;;;;;;13.77;8.02;;;;;;;15.14;73.96;100666.59;10320730;28;96684;-76
2023/03/12 22:34:32;;;;;;;13.68;8.13;;;;;;;15.17;73.98;100684.13;10326080;28;96624;-75
2023/03/12 22:39:39;;;;;;;14.88;9.63;;;;;;;14.99;74.38;100683.28;10297801;28;96760;-76
2023/03/12 22:44:43;;;;;;;16.27;7.93;;;;;;;14.87;74.94;100686.53;10298297;28;96906;-76
2023/03/12 22:49:47;;;;;;;12.95;7.53;;;;;;;14.99;73.92;100696.53;10297591;28;96857;-76
2023/03/12 22:54:52;;;;;;;13.68;7.50;;;;;;;14.75;74.69;100717.16;10298005;28;96740;-76
2023/03/12 22:59:55;;;;;;;12.45;7.60;;;;;;;14.69;75.08;100719.25;10335558;28;97908;-75
2023/03/12 23:04:58;;;;;;;13.40;7.18;;;;;;;14.60;75.52;100730.31;10338053;28;97345;-76
2023/03/12 23:10:04;;;;;;;14.70;8.32;;;;;;;14.58;75.04;100729.50;10312234;28;97500;-76
2023/03/12 23:15:08;;;;;;;16.95;7.82;;;;;;;14.52;75.37;100714.78;10296875;28;96742;-76